Weather reports worldwide

Advertisment
Bala, United Kingdom (3409): temperature & dewpoint: 16.04.2018 17:00:00 - 22.04.2018 17:00:00 (BST)Bala, United Kingdom (3409): temperature -20cm & temperature -100cm: 16.04.2018 17:00:00 - 22.04.2018 17:00:00 (BST)Bala, United Kingdom (3409): wind speed & gusts: 16.04.2018 17:00:00 - 22.04.2018 17:00:00 (BST)Bala, United Kingdom (3409): wind direction: 16.04.2018 17:00:00 - 22.04.2018 17:00:00 (BST)Bala, United Kingdom (3409): reduced air pressure: 16.04.2018 17:00:00 - 22.04.2018 17:00:00 (BST)Bala, United Kingdom (3409): sunshine duration: 16.04.2018 17:00:00 - 22.04.2018 17:00:00 (BST)Bala, United Kingdom (3409): precipitation: 16.04.2018 17:00:00 - 22.04.2018 17:00:00 (BST)
Date & Time tt [°C] td [°C] tt -20cm [°C] tt -100cm [°C] ff [km/h] ff [kn] fx [km/h] fx [kn] dd ppp [hPa] sd [min] rr [mm]
22.04.2018 17:00:00 - - - - - - - - - - - -
22.04.2018 16:00:00 10,8 7,2 - - 16 9 - - WSW 1008,8 0 0,0
22.04.2018 15:00:00 10,4 8,8 - - 16 9 - - SW 1008,6 0 0,4
22.04.2018 14:00:00 10,2 9,0 - - 13 7 - - WSW 1008,5 0 0,2
22.04.2018 13:00:00 10,0 7,9 - - 15 8 - - WSW 1008,3 0 0,0
22.04.2018 12:00:00 11,1 6,1 - - 0 0 - - N 1007,7 30 0,0
22.04.2018 11:00:00 11,4 3,8 - - 0 0 - - N 1007,7 30 0,0
22.04.2018 10:00:00 9,7 5,6 10,4 8,7 0 0 - - N 1008,0 6 0,0
22.04.2018 09:00:00 10,1 4,9 - - 0 0 - - N 1008,7 6 0,0
22.04.2018 08:00:00 10,5 7,9 - - 0 0 - - N 1008,1 0 0,0
22.04.2018 07:00:00 11,2 9,3 - - 0 0 - - N 1007,2 0 0,0
22.04.2018 06:00:00 11,0 9,3 - - 0 0 - - N 1007,5 0 0,0
22.04.2018 05:00:00 11,5 9,6 - - 0 0 - - N 1008,1 0 0,0
22.04.2018 04:00:00 12,4 8,7 - - 0 0 - - N 1008,7 0 0,0
22.04.2018 03:00:00 12,4 8,9 - - 0 0 - - N 1009,1 0 0,0
22.04.2018 02:00:00 15,6 10,0 - - 8 4 - - SW 1009,5 0 0,0
22.04.2018 01:00:00 15,9 10,0 - - 11 6 - - SSW 1010,2 - 0,0
22.04.2018 00:00:00 13,0 10,5 - - 8 4 - - SSW 1011,0 0 0,0
21.04.2018 23:00:00 10,9 9,4 - - 2 1 - - N 1011,1 0 0,0
21.04.2018 22:00:00 12,7 10,1 - - 0 0 - - N 1011,8 0 0,0
21.04.2018 21:00:00 15,4 11,3 - - 5 3 - - WSW 1012,0 0 0,0
21.04.2018 20:00:00 19,1 12,3 - - 8 4 - - SE 1012,2 0 0,0
21.04.2018 19:00:00 20,8 12,0 - - 13 7 - - SSE 1012,2 0 0,0
21.04.2018 18:00:00 21,6 11,5 - - 13 7 - - SSE 1012,6 48 0,0
21.04.2018 17:00:00 22,0 12,0 - - 11 6 - - SSE 1013,4 54 0,0
21.04.2018 16:00:00 21,9 11,7 - - 11 6 - - SSE 1014,4 60 0,0
21.04.2018 15:00:00 21,5 10,9 - - 13 7 - - SSW 1015,8 60 0,0
21.04.2018 14:00:00 20,7 10,1 - - 13 7 - - S 1017,0 60 0,0
21.04.2018 13:00:00 20,0 9,2 - - 11 6 - - WSW 1017,6 60 0,0
21.04.2018 12:00:00 18,7 8,0 - - 5 3 - - SSE 1018,9 60 0,0
21.04.2018 11:00:00 16,2 6,6 - - 4 2 - - NW 1019,8 60 0,0
21.04.2018 10:00:00 11,4 7,5 10,0 8,5 2 1 - - ESE 1021,1 60 0,0
21.04.2018 09:00:00 8,1 7,9 - - 2 1 - - E 1022,3 60 0,0
21.04.2018 08:00:00 3,8 3,6 - - 2 1 - - ESE 1023,3 60 0,0
21.04.2018 07:00:00 1,6 1,3 - - 2 1 - - NNE 1023,9 0 0,0
21.04.2018 06:00:00 1,5 1,3 - - 0 0 - - N 1024,0 0 0,0
21.04.2018 05:00:00 1,9 1,6 - - 0 0 - - N 1024,3 0 0,0
21.04.2018 04:00:00 2,2 1,8 - - 0 0 - - N 1024,6 0 0,0
21.04.2018 03:00:00 2,9 2,4 - - 0 0 - - N 1024,9 0 0,0
21.04.2018 02:00:00 3,5 2,9 - - 0 0 - - N 1025,4 0 0,0
21.04.2018 01:00:00 4,4 3,6 - - 0 0 - - N 1025,6 - 0,0
21.04.2018 00:00:00 5,2 4,1 - - 0 0 - - N 1025,8 0 0,0
20.04.2018 23:00:00 6,2 4,7 - - 2 1 - - N 1025,9 0 0,0
20.04.2018 22:00:00 7,6 5,3 - - 2 1 - - NNE 1025,9 0 0,0
20.04.2018 21:00:00 9,5 5,9 - - 5 3 - - E 1025,5 0 0,0
20.04.2018 20:00:00 12,5 6,9 - - 9 5 - - E 1024,8 60 0,0
20.04.2018 19:00:00 14,8 8,2 - - 13 7 - - E 1024,5 48 0,0
20.04.2018 18:00:00 15,6 8,3 - - 13 7 - - ENE 1024,3 60 0,0
20.04.2018 17:00:00 19,0 1,3 - - 11 6 - - WSW 1023,7 60 0,0
20.04.2018 16:00:00 18,4 6,4 - - 15 8 - - SW 1023,9 60 0,0
20.04.2018 15:00:00 18,7 7,5 - - 5 3 - - W 1024,1 60 0,0
20.04.2018 14:00:00 17,7 6,4 - - 4 2 - - W 1024,6 60 0,0
20.04.2018 13:00:00 17,2 6,3 - - 5 3 - - S 1025,1 60 0,0
20.04.2018 12:00:00 16,4 6,4 - - 4 2 - - N 1025,3 60 0,0
20.04.2018 11:00:00 14,5 8,9 - - 8 4 - - SW 1025,5 60 0,0
20.04.2018 10:00:00 12,0 8,6 9,7 8,2 5 3 - - SW 1025,4 60 0,0
20.04.2018 09:00:00 10,1 7,9 - - 5 3 - - WSW 1025,4 36 0,0
20.04.2018 08:00:00 8,8 7,9 - - 5 3 - - W 1025,4 60 0,0
20.04.2018 07:00:00 6,9 6,0 - - 2 1 - - NNE 1025,1 0 0,0
20.04.2018 06:00:00 8,2 6,6 - - 8 4 - - W 1024,8 0 0,0
20.04.2018 05:00:00 8,2 7,4 - - 8 4 - - W 1024,7 0 0,0
20.04.2018 04:00:00 7,5 6,5 - - 0 0 - - N 1024,9 0 0,0
20.04.2018 03:00:00 9,0 7,5 - - 5 3 - - W 1024,9 0 0,0
20.04.2018 02:00:00 9,9 8,6 - - 13 7 - - SW 1025,1 0 0,0
20.04.2018 01:00:00 10,2 9,4 - - 15 8 - - SW 1025,2 - 0,0
20.04.2018 00:00:00 10,3 9,6 - - 13 7 - - WSW 1024,9 0 0,0
19.04.2018 23:00:00 10,9 9,7 - - 13 7 - - WSW 1024,9 0 0,0
19.04.2018 22:00:00 11,0 9,7 - - 11 6 - - WSW 1025,2 0 0,0
19.04.2018 21:00:00 10,8 9,4 - - 13 7 - - WSW 1025,0 0 0,0
19.04.2018 20:00:00 12,4 9,7 - - 16 9 - - WSW 1024,4 54 0,0
19.04.2018 19:00:00 15,3 11,0 - - 13 7 - - SW 1024,0 60 0,0
19.04.2018 18:00:00 16,9 11,1 - - 24 13 - - SW 1023,8 60 0,0
19.04.2018 17:00:00 19,3 10,9 - - 16 9 - - WSW 1023,1 60 0,0
19.04.2018 16:00:00 19,4 11,2 - - 16 9 - - SW 1023,1 60 0,0
19.04.2018 15:00:00 19,4 11,0 - - 16 9 - - SW 1023,4 60 0,0
19.04.2018 14:00:00 19,4 11,3 - - 16 9 - - SW 1023,4 60 0,0
19.04.2018 13:00:00 18,4 10,8 - - 16 9 - - WSW 1023,3 60 0,0
19.04.2018 12:00:00 17,9 10,4 - - 18 10 - - SW 1023,5 60 0,0
19.04.2018 11:00:00 16,3 9,2 - - 15 8 - - WSW 1023,4 60 0,0
19.04.2018 10:00:00 15,9 9,2 9,4 7,9 15 8 - - WSW 1023,2 60 0,0
19.04.2018 09:00:00 14,3 9,7 - - 5 3 - - SW 1022,9 60 -
19.04.2018 08:00:00 9,4 8,9 - - 0 0 - - N 1023,0 60 -
19.04.2018 07:00:00 6,4 5,7 - - 0 0 - - N 1022,7 6 -
19.04.2018 06:00:00 6,8 5,6 - - 0 0 - - N 1022,2 0 -
19.04.2018 05:00:00 7,7 6,4 - - 2 1 - - ENE 1022,1 0 -
19.04.2018 04:00:00 9,0 7,1 - - 2 1 - - ESE 1022,1 0 -
19.04.2018 03:00:00 11,1 7,4 - - 2 1 - - NNE 1021,9 0 -
19.04.2018 02:00:00 14,9 7,9 - - 8 4 - - S 1021,9 0 0,0
19.04.2018 01:00:00 15,6 8,1 - - 11 6 - - SSE 1022,3 - 0,0
19.04.2018 00:00:00 10,6 8,1 - - 2 1 - - ENE 1022,7 0 0,0
18.04.2018 23:00:00 11,1 7,8 - - 5 3 - - SE 1022,6 0 0,0
18.04.2018 22:00:00 15,2 9,1 - - 4 2 - - ESE 1022,2 0 0,0
18.04.2018 21:00:00 17,7 8,9 - - 8 4 - - S 1021,5 0 0,0
18.04.2018 20:00:00 19,2 9,7 - - 9 5 - - SE 1020,6 54 0,0
18.04.2018 19:00:00 20,4 8,3 - - 21 11 - - SSE 1020,5 60 0,0
18.04.2018 18:00:00 20,9 9,9 - - 15 8 - - S 1020,9 60 0,0
18.04.2018 17:00:00 20,6 10,1 - - 15 8 - - S 1021,6 60 0,0
18.04.2018 16:00:00 20,0 12,2 - - 15 8 - - SE 1022,3 60 0,0
18.04.2018 15:00:00 19,7 11,0 - - 16 9 - - SSE 1023,1 54 0,0
18.04.2018 14:00:00 18,4 11,6 - - 15 8 - - SE 1023,7 42 0,0
18.04.2018 13:00:00 17,2 10,6 - - 16 9 - - S 1024,1 36 0,0
18.04.2018 12:00:00 16,3 11,5 - - 21 11 - - S 1024,0 36 0,0
18.04.2018 11:00:00 14,8 10,9 - - 22 12 - - SSW 1023,9 18 0,0
18.04.2018 10:00:00 13,0 10,7 8,7 7,7 15 8 - - SW 1024,0 0 0,0
18.04.2018 09:00:00 13,1 10,7 - - 11 6 - - SSW 1023,4 0 0,0
18.04.2018 08:00:00 12,3 11,0 - - 11 6 - - SW 1022,6 0 0,2
18.04.2018 07:00:00 12,3 10,6 - - 21 11 - - WSW 1021,9 0 0,2
18.04.2018 06:00:00 12,9 10,4 - - 11 6 - - SW 1020,6 0 0,4
18.04.2018 05:00:00 13,9 10,8 - - 13 7 - - S 1019,9 0 0,0
18.04.2018 04:00:00 13,1 10,4 - - 4 2 - - SSE 1019,6 0 0,0
18.04.2018 03:00:00 13,0 10,6 - - 15 8 - - SSW 1019,7 0 0,0
18.04.2018 02:00:00 13,0 10,4 - - 11 6 - - SSW 1019,4 0 0,2
18.04.2018 01:00:00 12,5 10,0 - - 8 4 - - S 1019,4 - 0,0
18.04.2018 00:00:00 12,3 9,1 - - 11 6 - - SW 1019,0 0 0,0
17.04.2018 23:00:00 12,2 8,5 - - 11 6 - - SW 1018,6 0 0,0
17.04.2018 22:00:00 12,9 8,7 - - 18 10 - - SW 1018,0 0 0,0
17.04.2018 21:00:00 12,0 9,2 - - 9 5 - - SW 1017,1 0 0,0
17.04.2018 20:00:00 12,3 8,3 - - 13 7 - - WSW 1016,4 0 0,0
17.04.2018 19:00:00 12,3 8,6 - - 13 7 - - WSW 1015,7 30 0,0
17.04.2018 18:00:00 12,4 8,5 - - 24 13 - - WSW 1014,7 24 0,0
17.04.2018 17:00:00 12,1 9,5 - - 21 11 - - WSW 1014,2 6 0,2
17.04.2018 16:00:00 10,8 10,0 - - 21 11 46 25 WSW 1013,8 0 0,8
17.04.2018 15:00:00 10,8 9,5 - - 22 12 48 26 WSW 1013,1 0 0,2
17.04.2018 14:00:00 12,1 8,4 - - 22 12 50 27 SSW 1012,6 0 0,6
17.04.2018 13:00:00 11,0 9,6 - - 29 16 - - SW 1012,3 0 2,0
17.04.2018 12:00:00 11,3 9,0 - - 21 11 - - WSW 1011,2 0 1,2
17.04.2018 11:00:00 11,8 9,1 - - 22 12 - - SSW 1010,6 0 1,0
17.04.2018 10:00:00 11,4 8,5 8,5 7,7 21 11 46 25 SSW 1010,3 0 0,8
17.04.2018 09:00:00 11,2 8,2 - - 22 12 - - SSW 1009,8 0 0,8
17.04.2018 08:00:00 11,0 8,0 - - 21 11 50 27 SSW 1009,3 0 0,8
17.04.2018 07:00:00 11,1 7,9 - - 22 12 55 30 SSW 1008,6 0 0,8
17.04.2018 06:00:00 11,0 8,0 - - 21 11 50 27 SSW 1008,2 0 0,0
17.04.2018 05:00:00 11,0 7,5 - - 16 9 46 25 S 1008,4 0 0,0
17.04.2018 04:00:00 11,5 6,5 - - 16 9 - - SSW 1009,1 0 0,0
17.04.2018 03:00:00 11,1 5,8 - - 11 6 - - SSW 1009,1 0 0,0
17.04.2018 02:00:00 10,5 4,9 - - 11 6 - - SW 1009,7 0 0,0
17.04.2018 01:00:00 10,1 4,5 - - 16 9 - - SSW 1010,1 - 0,0
17.04.2018 00:00:00 9,9 3,8 - - 16 9 - - SSW 1009,8 0 0,0
16.04.2018 23:00:00 10,1 3,6 - - 18 10 - - SSW 1010,1 0 0,0
16.04.2018 22:00:00 10,1 4,2 - - 15 8 - - SSW 1010,9 0 0,0
16.04.2018 21:00:00 10,2 4,0 - - 16 9 - - SSW 1011,2 0 0,0
16.04.2018 20:00:00 10,9 3,6 - - 13 7 - - SSW 1010,8 0 0,0
16.04.2018 19:00:00 11,3 3,6 - - 11 6 - - S 1010,6 0 0,0
16.04.2018 18:00:00 11,7 3,4 - - 15 8 - - SSW 1010,3 0 0,0
16.04.2018 17:00:00 12,2 2,6 - - 16 9 - - SSW 1010,3 6 0,0

tt = temperature
td = dewpoint
tt -20cm = temperature -20cm
tt -100cm = temperature -100cm
ff = wind speed
fx = gusts
dd = wind direction
ppp = reduced air pressure
sd = sunshine duration
rr = precipitation

Next stations